Time;durP1;ratioP1;P1;durP2;ratioP2;P2;SDS_P1;SDS_P2;PMS_P1;PMS_P2;Temp;Humidity;BMP_temperature;BMP_pressure;BME280_temperature;BME280_humidity;BME280_pressure;Samples;Min_cycle;Max_cycle;Signal;HPM_P1;HPM_P2
2022/10/12 00:27:34;;;;;;;22.40;17.48;;;;;;;;;;6227436;22;20024;-77
2022/10/12 00:30:02;;;;;;;25.98;17.60;;;;;;;;;;6151609;23;20032;-78
2022/10/12 00:32:28;;;;;;;27.98;19.23;;;;;;;;;;6126327;23;20048;-78
2022/10/12 00:34:55;;;;;;;28.27;16.73;;;;;;;;;;6126387;23;20365;-77
2022/10/12 00:37:21;;;;;;;27.50;17.88;;;;;;;;;;6152212;23;20013;-77
2022/10/12 00:39:48;;;;;;;28.30;16.55;;;;;;;;;;6152176;23;20045;-77
2022/10/12 00:42:14;;;;;;;27.15;18.02;;;;;;;;;;6150875;23;20013;-77
2022/10/12 00:44:40;;;;;;;21.92;16.20;;;;;;;;;;6152036;23;20057;-78
2022/10/12 00:47:07;;;;;;;28.40;17.48;;;;;;;;;;6101529;23;20010;-77
2022/10/12 00:49:33;;;;;;;26.20;16.27;;;;;;;;;;6122453;23;20474;-77
2022/10/12 00:52:00;;;;;;;44.53;19.58;;;;;;;;;;6122914;23;20340;-78
2022/10/12 00:54:33;;;;;;;28.90;17.17;;;;;;;;;;6073060;23;20017;-79
2022/10/12 00:57:01;;;;;;;34.15;18.20;;;;;;;;;;6122941;23;20041;-78
2022/10/12 00:59:28;;;;;;;31.20;17.13;;;;;;;;;;6122687;23;20092;-77
2022/10/12 01:01:54;;;;;;;29.25;16.83;;;;;;;;;;6049240;23;20096;-76
2022/10/12 01:04:20;;;;;;;27.65;16.58;;;;;;;;;;6096622;23;20045;-76
2022/10/12 01:06:47;;;;;;;40.80;18.77;;;;;;;;;;6096836;23;20009;-78
2022/10/12 01:09:13;;;;;;;34.25;18.33;;;;;;;;;;6122605;23;20018;-76
2022/10/12 01:11:39;;;;;;;34.05;17.65;;;;;;;;;;6096736;23;20014;-77
2022/10/12 01:14:05;;;;;;;38.75;19.00;;;;;;;;;;6096971;23;20014;-77
2022/10/12 01:16:39;;;;;;;30.85;18.63;;;;;;;;;;6122451;23;20077;-79
2022/10/12 01:19:16;;;;;;;29.70;16.65;;;;;;;;;;6122708;23;20046;-77
2022/10/12 01:21:55;;;;;;;34.50;18.67;;;;;;;;;;6096983;23;20021;-76
2022/10/12 01:24:25;;;;;;;30.25;18.65;;;;;;;;;;6073104;23;20014;-78
2022/10/12 01:27:20;;;;;;;38.25;20.15;;;;;;;;;;6122409;23;20029;-77
2022/10/12 01:30:06;;;;;;;42.67;21.15;;;;;;;;;;6103564;23;20486;-78
2022/10/12 01:32:34;;;;;;;39.60;21.58;;;;;;;;;;6097006;23;20014;-78
2022/10/12 01:34:59;;;;;;;39.03;20.10;;;;;;;;;;6122449;23;20045;-77
2022/10/12 01:37:27;;;;;;;53.92;22.73;;;;;;;;;;6122371;23;20021;-78
2022/10/12 01:39:53;;;;;;;35.72;19.48;;;;;;;;;;6096043;23;20085;-76
2022/10/12 01:42:21;;;;;;;38.22;18.42;;;;;;;;;;6073101;23;20024;-77
2022/10/12 01:44:48;;;;;;;36.05;19.48;;;;;;;;;;6122191;23;20092;-76
2022/10/12 01:47:14;;;;;;;49.65;20.92;;;;;;;;;;6122419;23;20045;-76
2022/10/12 01:49:41;;;;;;;47.92;21.33;;;;;;;;;;6096365;23;20125;-76
2022/10/12 01:52:11;;;;;;;37.80;20.33;;;;;;;;;;6122610;23;20617;-77
2022/10/12 01:54:43;;;;;;;35.80;20.63;;;;;;;;;;6122225;23;20033;-78
2022/10/12 01:57:45;;;;;;;39.47;21.20;;;;;;;;;;6122974;23;20041;-78
2022/10/12 02:00:14;;;;;;;53.05;19.98;;;;;;;;;;6032940;23;20492;-77
2022/10/12 02:02:59;;;;;;;32.33;19.92;;;;;;;;;;6080806;23;20101;-78
2022/10/12 02:05:34;;;;;;;23.98;14.80;;;;;;;;;;6122396;23;20014;-77
2022/10/12 02:08:02;;;;;;;35.67;16.15;;;;;;;;;;6127540;23;20006;-78
2022/10/12 02:10:31;;;;;;;33.15;18.30;;;;;;;;;;6110311;23;20025;-78
2022/10/12 02:12:57;;;;;;;36.13;18.35;;;;;;;;;;6126413;23;20466;-80
2022/10/12 02:15:23;;;;;;;37.67;19.00;;;;;;;;;;6096568;23;20097;-77
2022/10/12 02:17:50;;;;;;;38.10;19.73;;;;;;;;;;6096680;23;20491;-77
2022/10/12 02:20:16;;;;;;;41.38;19.80;;;;;;;;;;6096600;23;20014;-78
2022/10/12 02:22:42;;;;;;;35.58;18.10;;;;;;;;;;6096560;23;20056;-77
2022/10/12 02:25:10;;;;;;;39.13;18.50;;;;;;;;;;6072996;23;20025;-78
2022/10/12 02:27:38;;;;;;;32.72;18.02;;;;;;;;;;6096662;23;20484;-78
2022/10/12 02:30:04;;;;;;;33.50;21.00;;;;;;;;;;6073501;23;20084;-76
2022/10/12 02:32:35;;;;;;;39.83;21.02;;;;;;;;;;6126184;23;20102;-78
2022/10/12 02:35:22;;;;;;;34.03;19.95;;;;;;;;;;6126258;23;20134;-78
2022/10/12 02:37:51;;;;;;;41.20;19.60;;;;;;;;;;6134836;23;20018;-77
2022/10/12 02:40:53;;;;;;;35.42;19.83;;;;;;;;;;6135330;23;20010;-77
2022/10/12 02:43:20;;;;;;;39.25;20.23;;;;;;;;;;6017982;23;20107;-77
2022/10/12 02:45:47;;;;;;;34.95;20.15;;;;;;;;;;6080757;23;20045;-77
2022/10/12 02:48:17;;;;;;;29.73;17.67;;;;;;;;;;6122647;23;20017;-77
2022/10/12 02:50:44;;;;;;;37.60;20.92;;;;;;;;;;6072761;23;20022;-77
2022/10/12 02:53:11;;;;;;;42.63;21.63;;;;;;;;;;6097969;23;20033;-77
2022/10/12 02:55:37;;;;;;;36.17;19.92;;;;;;;;;;6098751;23;20021;-78
2022/10/12 02:58:03;;;;;;;34.03;19.33;;;;;;;;;;6123985;23;20029;-77
2022/10/12 03:00:31;;;;;;;30.60;20.02;;;;;;;;;;6098085;23;20024;-78
2022/10/12 03:02:58;;;;;;;28.58;18.75;;;;;;;;;;6098359;23;20013;-77
2022/10/12 03:05:25;;;;;;;37.00;20.92;;;;;;;;;;6097348;23;20406;-78
2022/10/12 03:07:50;;;;;;;38.28;20.77;;;;;;;;;;6123600;23;20146;-76
2022/10/12 03:10:16;;;;;;;32.67;18.10;;;;;;;;;;6123356;23;20030;-76
2022/10/12 03:12:44;;;;;;;38.70;22.15;;;;;;;;;;6073806;23;20042;-77
2022/10/12 03:15:10;;;;;;;47.67;24.60;;;;;;;;;;6123455;23;20474;-77
2022/10/12 03:17:36;;;;;;;58.78;25.50;;;;;;;;;;6123415;23;20671;-77
2022/10/12 03:20:04;;;;;;;44.47;23.48;;;;;;;;;;6123193;23;20014;-76
2022/10/12 03:22:30;;;;;;;45.47;24.85;;;;;;;;;;6097856;23;20014;-77
2022/10/12 03:24:59;;;;;;;154.75;32.35;;;;;;;;;;6123362;23;20025;-78
2022/10/12 03:27:25;;;;;;;61.88;28.45;;;;;;;;;;6123303;23;20010;-78
2022/10/12 03:29:52;;;;;;;65.57;19.58;;;;;;;;;;6121722;23;20030;-79
2022/10/12 03:32:18;;;;;;;46.13;17.95;;;;;;;;;;6123422;23;20535;-77
2022/10/12 03:34:45;;;;;;;59.97;23.20;;;;;;;;;;6122998;23;20018;-78
2022/10/12 03:37:13;;;;;;;46.33;22.02;;;;;;;;;;6097890;23;20253;-78
2022/10/12 03:39:40;;;;;;;44.05;22.83;;;;;;;;;;6123342;23;20017;-78
2022/10/12 03:42:08;;;;;;;40.70;20.70;;;;;;;;;;6098011;23;20140;-78
2022/10/12 03:44:34;;;;;;;29.33;19.08;;;;;;;;;;6123321;23;20148;-78
2022/10/12 03:47:00;;;;;;;39.75;20.38;;;;;;;;;;6097536;23;20045;-78
2022/10/12 03:49:26;;;;;;;35.15;19.73;;;;;;;;;;6123137;23;20022;-77
2022/10/12 03:51:52;;;;;;;31.23;19.48;;;;;;;;;;6073389;23;20038;-77
2022/10/12 03:54:19;;;;;;;36.67;19.45;;;;;;;;;;6123120;23;20029;-78
2022/10/12 03:56:46;;;;;;;44.13;20.70;;;;;;;;;;6123817;23;20013;-79
2022/10/12 03:59:12;;;;;;;41.38;20.33;;;;;;;;;;6123390;23;20014;-78
2022/10/12 04:01:38;;;;;;;46.42;22.83;;;;;;;;;;6123104;23;20025;-78
2022/10/12 04:04:05;;;;;;;46.78;25.23;;;;;;;;;;6097535;23;20006;-78
2022/10/12 04:06:32;;;;;;;57.25;27.05;;;;;;;;;;6098063;23;20022;-79
2022/10/12 04:08:58;;;;;;;86.35;38.63;;;;;;;;;;6127556;23;20026;-78
2022/10/12 04:11:25;;;;;;;87.28;41.50;;;;;;;;;;6135493;23;20444;-77
2022/10/12 04:13:52;;;;;;;70.78;33.63;;;;;;;;;;6097762;23;20014;-77
2022/10/12 04:16:18;;;;;;;55.25;29.23;;;;;;;;;;6097350;23;20092;-78
2022/10/12 04:18:45;;;;;;;50.92;25.77;;;;;;;;;;6123220;23;20410;-78
2022/10/12 04:21:13;;;;;;;52.97;28.42;;;;;;;;;;6096786;23;20351;-79
2022/10/12 04:23:39;;;;;;;47.33;26.30;;;;;;;;;;6122883;23;20014;-79
2022/10/12 04:26:06;;;;;;;58.50;29.25;;;;;;;;;;6122786;23;20014;-79
2022/10/12 04:28:33;;;;;;;39.15;23.98;;;;;;;;;;6096723;23;20021;-80
2022/10/12 04:30:59;;;;;;;38.03;22.75;;;;;;;;;;6122688;23;20463;-80
2022/10/12 04:33:27;;;;;;;37.08;20.75;;;;;;;;;;6122957;23;20017;-80
2022/10/12 04:35:53;;;;;;;39.33;17.88;;;;;;;;;;6122685;23;20513;-80
2022/10/12 04:38:20;;;;;;;46.97;25.48;;;;;;;;;;6097081;23;20494;-79
2022/10/12 04:40:46;;;;;;;36.35;20.83;;;;;;;;;;6122395;23;20014;-79
2022/10/12 04:43:13;;;;;;;36.42;18.60;;;;;;;;;;6097110;23;20018;-79
2022/10/12 04:45:38;;;;;;;33.83;18.80;;;;;;;;;;6123874;23;20017;-79
2022/10/12 04:48:05;;;;;;;30.70;17.02;;;;;;;;;;6098848;23;20022;-80
2022/10/12 04:50:32;;;;;;;36.15;17.58;;;;;;;;;;6122779;23;20495;-78
2022/10/12 04:52:58;;;;;;;39.05;16.88;;;;;;;;;;6122776;23;20006;-78
2022/10/12 04:55:25;;;;;;;34.10;17.65;;;;;;;;;;6122627;23;20025;-77
2022/10/12 04:57:51;;;;;;;31.25;18.38;;;;;;;;;;6122871;23;20014;-78
2022/10/12 05:00:17;;;;;;;34.33;18.02;;;;;;;;;;6122649;23;20125;-78
2022/10/12 05:02:43;;;;;;;34.80;16.75;;;;;;;;;;6096741;23;20063;-78
2022/10/12 05:05:09;;;;;;;28.65;16.55;;;;;;;;;;6122601;23;20017;-78
2022/10/12 05:07:36;;;;;;;41.17;20.55;;;;;;;;;;6122850;23;20549;-77
2022/10/12 05:10:03;;;;;;;35.65;21.48;;;;;;;;;;6122338;23;20033;-77
2022/10/12 05:12:29;;;;;;;44.28;22.40;;;;;;;;;;6122785;23;20016;-77
2022/10/12 05:14:55;;;;;;;35.10;20.67;;;;;;;;;;6096447;23;20552;-77
2022/10/12 05:17:22;;;;;;;46.58;23.33;;;;;;;;;;6122143;23;20398;-77
2022/10/12 05:19:48;;;;;;;63.03;29.40;;;;;;;;;;6122436;23;20013;-77
2022/10/12 05:22:14;;;;;;;56.55;30.75;;;;;;;;;;6122705;23;20017;-77
2022/10/12 05:24:40;;;;;;;50.90;29.25;;;;;;;;;;6096971;23;20214;-77
2022/10/12 05:27:06;;;;;;;50.92;28.55;;;;;;;;;;6096748;23;20016;-77
2022/10/12 05:29:32;;;;;;;46.22;26.30;;;;;;;;;;6122262;23;20105;-77
2022/10/12 05:32:00;;;;;;;48.90;23.90;;;;;;;;;;6096102;23;20730;-77
2022/10/12 05:34:26;;;;;;;46.15;24.52;;;;;;;;;;6096304;23;20045;-78
2022/10/12 05:36:54;;;;;;;34.30;21.92;;;;;;;;;;6122182;23;20010;-77
2022/10/12 05:39:21;;;;;;;35.35;21.10;;;;;;;;;;6096546;23;20038;-78
2022/10/12 05:41:47;;;;;;;46.65;22.50;;;;;;;;;;6096641;23;20014;-78
2022/10/12 05:44:13;;;;;;;42.60;24.42;;;;;;;;;;6122347;23;20121;-76
2022/10/12 05:46:40;;;;;;;41.95;25.33;;;;;;;;;;6097059;23;20462;-77
2022/10/12 05:49:06;;;;;;;49.58;25.55;;;;;;;;;;6122164;23;20016;-78
2022/10/12 05:51:33;;;;;;;43.60;24.25;;;;;;;;;;6122335;23;20013;-77
2022/10/12 05:54:00;;;;;;;40.40;22.30;;;;;;;;;;6122408;23;20014;-78
2022/10/12 05:56:27;;;;;;;38.90;22.20;;;;;;;;;;6122298;23;20439;-76
2022/10/12 05:58:53;;;;;;;39.25;22.38;;;;;;;;;;6117902;23;20010;-82
2022/10/12 06:01:20;;;;;;;36.17;19.52;;;;;;;;;;6120952;23;20113;-79
2022/10/12 06:03:47;;;;;;;37.13;19.92;;;;;;;;;;6121569;23;20443;-78
2022/10/12 06:06:13;;;;;;;31.83;19.20;;;;;;;;;;6121344;23;20014;-79
2022/10/12 06:08:39;;;;;;;28.55;18.42;;;;;;;;;;6127186;23;20080;-79
2022/10/12 06:11:06;;;;;;;33.05;18.77;;;;;;;;;;6103072;23;20026;-79
2022/10/12 06:13:32;;;;;;;40.75;20.23;;;;;;;;;;6096799;23;20018;-79
2022/10/12 06:15:59;;;;;;;33.33;20.80;;;;;;;;;;6095827;23;20018;-79
2022/10/12 06:18:25;;;;;;;29.63;18.02;;;;;;;;;;6121951;23;20010;-79
2022/10/12 06:20:52;;;;;;;29.80;19.23;;;;;;;;;;6122164;23;20014;-78
2022/10/12 06:23:19;;;;;;;33.15;19.13;;;;;;;;;;6122892;23;20018;-83
2022/10/12 06:25:46;;;;;;;37.75;19.25;;;;;;;;;;6125945;23;20049;-78
2022/10/12 06:28:13;;;;;;;31.52;19.02;;;;;;;;;;6103728;23;20028;-78
2022/10/12 06:30:40;;;;;;;27.25;17.95;;;;;;;;;;6121636;23;20109;-79
2022/10/12 06:33:06;;;;;;;26.85;16.50;;;;;;;;;;6097713;23;20006;-81
2022/10/12 06:35:32;;;;;;;27.90;18.00;;;;;;;;;;6122268;23;20018;-78
2022/10/12 06:37:59;;;;;;;28.15;17.55;;;;;;;;;;6123462;23;20057;-80
2022/10/12 06:40:26;;;;;;;24.83;15.88;;;;;;;;;;6123218;23;20018;-80
2022/10/12 06:42:52;;;;;;;30.98;17.23;;;;;;;;;;6123504;23;20142;-80
2022/10/12 06:45:19;;;;;;;32.53;16.77;;;;;;;;;;6123191;23;20108;-80
2022/10/12 06:47:45;;;;;;;34.70;16.05;;;;;;;;;;6122100;23;20105;-79
2022/10/12 06:50:12;;;;;;;31.27;16.63;;;;;;;;;;6121730;23;20080;-77
2022/10/12 06:52:39;;;;;;;22.88;15.07;;;;;;;;;;6123372;23;20022;-77
2022/10/12 06:55:05;;;;;;;24.23;15.18;;;;;;;;;;6123340;23;20014;-79
2022/10/12 06:57:32;;;;;;;26.45;15.77;;;;;;;;;;6125290;23;20077;-78
2022/10/12 06:59:59;;;;;;;32.13;16.20;;;;;;;;;;6123016;23;20069;-77
2022/10/12 07:02:26;;;;;;;32.65;16.10;;;;;;;;;;6123747;23;20048;-77
2022/10/12 07:04:52;;;;;;;24.88;15.35;;;;;;;;;;6097192;23;20018;-76
2022/10/12 07:07:19;;;;;;;27.80;15.27;;;;;;;;;;6124978;23;20017;-76
2022/10/12 07:09:44;;;;;;;25.10;15.07;;;;;;;;;;6131961;23;20026;-82
2022/10/12 07:12:11;;;;;;;24.20;15.32;;;;;;;;;;6136261;23;20038;-79
2022/10/12 07:14:37;;;;;;;30.02;15.75;;;;;;;;;;6108261;23;20073;-75
2022/10/12 07:17:03;;;;;;;25.75;14.65;;;;;;;;;;6125632;23;20010;-74
2022/10/12 07:19:29;;;;;;;26.55;15.57;;;;;;;;;;6124363;23;20021;-76
2022/10/12 07:21:55;;;;;;;24.80;14.68;;;;;;;;;;6097405;23;20014;-75
2022/10/12 07:24:21;;;;;;;21.40;15.95;;;;;;;;;;6123397;23;20041;-76
2022/10/12 07:26:48;;;;;;;20.85;12.73;;;;;;;;;;6122445;23;20018;-76
2022/10/12 07:29:15;;;;;;;26.00;14.60;;;;;;;;;;6122557;23;20025;-76
2022/10/12 07:31:42;;;;;;;20.50;13.63;;;;;;;;;;6122646;23;20018;-76
2022/10/12 07:34:08;;;;;;;25.83;14.45;;;;;;;;;;6122710;23;20037;-76
2022/10/12 07:36:35;;;;;;;20.73;13.05;;;;;;;;;;6122550;23;20045;-76
2022/10/12 07:39:01;;;;;;;24.83;12.65;;;;;;;;;;6071870;23;20498;-74
2022/10/12 07:41:28;;;;;;;24.38;14.02;;;;;;;;;;6122458;23;20379;-77
2022/10/12 07:43:58;;;;;;;22.95;12.75;;;;;;;;;;6096449;23;20101;-79
2022/10/12 07:46:24;;;;;;;25.25;12.88;;;;;;;;;;6122452;23;20021;-76
2022/10/12 07:48:51;;;;;;;29.08;11.70;;;;;;;;;;6122057;23;20010;-77
2022/10/12 07:51:17;;;;;;;22.52;11.82;;;;;;;;;;6122374;23;20032;-76
2022/10/12 07:53:43;;;;;;;14.27;11.30;;;;;;;;;;6072774;23;20010;-77
2022/10/12 07:56:13;;;;;;;18.05;11.32;;;;;;;;;;6122388;23;20478;-76
2022/10/12 07:58:40;;;;;;;18.17;11.88;;;;;;;;;;6072752;23;20020;-77
2022/10/12 08:01:06;;;;;;;19.13;10.90;;;;;;;;;;6122274;23;20043;-79
2022/10/12 08:03:32;;;;;;;24.08;11.43;;;;;;;;;;6096969;23;20465;-79
2022/10/12 08:05:59;;;;;;;20.00;11.18;;;;;;;;;;6124347;23;20499;-78
2022/10/12 08:08:25;;;;;;;18.50;10.93;;;;;;;;;;6133947;23;20068;-79
2022/10/12 08:10:52;;;;;;;19.40;10.73;;;;;;;;;;6125380;23;20029;-79
2022/10/12 08:13:18;;;;;;;16.85;10.98;;;;;;;;;;6122664;23;20513;-77
2022/10/12 08:15:49;;;;;;;26.95;10.48;;;;;;;;;;6121665;23;20010;-78
2022/10/12 08:18:14;;;;;;;15.27;9.85;;;;;;;;;;6071811;23;20018;-81
2022/10/12 08:20:41;;;;;;;16.45;10.38;;;;;;;;;;6095862;23;20013;-79
2022/10/12 08:23:06;;;;;;;21.63;10.63;;;;;;;;;;6121850;23;20017;-80
2022/10/12 08:25:33;;;;;;;13.68;9.82;;;;;;;;;;6122037;23;20013;-80
2022/10/12 08:28:00;;;;;;;16.98;10.13;;;;;;;;;;6075733;23;20018;-77
2022/10/12 08:30:25;;;;;;;17.15;10.55;;;;;;;;;;6122551;23;20099;-80
2022/10/12 08:32:52;;;;;;;13.30;10.35;;;;;;;;;;6125099;23;20583;-72
2022/10/12 08:35:18;;;;;;;16.75;10.30;;;;;;;;;;6120796;23;20021;-80
2022/10/12 08:37:44;;;;;;;23.70;10.00;;;;;;;;;;6121655;23;20044;-78
2022/10/12 08:40:17;;;;;;;16.70;9.20;;;;;;;;;;6094287;23;20520;-79
2022/10/12 08:42:49;;;;;;;13.32;9.50;;;;;;;;;;6121695;23;20021;-80
2022/10/12 08:45:15;;;;;;;37.83;26.80;;;;;;;;;;6120346;23;20006;-78
2022/10/12 08:47:45;;;;;;;14.20;8.35;;;;;;;;;;6122083;23;20045;-79
2022/10/12 08:50:17;;;;;;;17.00;8.93;;;;;;;;;;6093843;23;20037;-80
2022/10/12 08:52:48;;;;;;;16.90;9.02;;;;;;;;;;6120291;23;20068;-79
2022/10/12 08:55:19;;;;;;;10.85;7.68;;;;;;;;;;6120645;23;20068;-78
2022/10/12 08:57:45;;;;;;;10.82;7.95;;;;;;;;;;6119244;23;20346;-79
2022/10/12 09:00:13;;;;;;;10.45;7.70;;;;;;;;;;6120544;23;20018;-79
2022/10/12 09:02:50;;;;;;;10.15;7.60;;;;;;;;;;6071402;23;20032;-80
2022/10/12 09:05:39;;;;;;;9.88;7.72;;;;;;;;;;6119753;23;20546;-78
2022/10/12 09:08:08;;;;;;;10.23;7.85;;;;;;;;;;6119003;23;20018;-78
2022/10/12 09:10:40;;;;;;;11.95;8.05;;;;;;;;;;6120242;23;20069;-78
2022/10/12 09:13:17;;;;;;;16.92;7.82;;;;;;;;;;6121067;23;20018;-78
2022/10/12 09:16:03;;;;;;;14.80;7.82;;;;;;;;;;6123149;23;20100;-78
2022/10/12 09:18:33;;;;;;;21.27;8.43;;;;;;;;;;6125518;23;20017;-78
2022/10/12 09:21:01;;;;;;;14.27;9.45;;;;;;;;;;6123229;23;20014;-78
2022/10/12 09:23:31;;;;;;;15.45;8.85;;;;;;;;;;6122924;23;20014;-79
2022/10/12 09:26:02;;;;;;;21.08;9.38;;;;;;;;;;6122253;23;20032;-78
2022/10/12 09:28:30;;;;;;;12.63;8.98;;;;;;;;;;6121362;23;20017;-79
2022/10/12 09:31:25;;;;;;;18.98;8.98;;;;;;;;;;6122360;23;20459;-79
2022/10/12 09:33:57;;;;;;;18.60;9.48;;;;;;;;;;6069448;23;20017;-79
2022/10/12 09:36:24;;;;;;;13.68;8.50;;;;;;;;;;6122930;23;20490;-79
2022/10/12 09:38:50;;;;;;;12.52;8.30;;;;;;;;;;6123016;23;20014;-79
2022/10/12 09:41:20;;;;;;;16.63;8.60;;;;;;;;;;6123045;23;20010;-79
2022/10/12 09:43:49;;;;;;;9.57;7.97;;;;;;;;;;6121356;23;20045;-78
2022/10/12 09:46:15;;;;;;;13.18;5.72;;;;;;;;;;6120911;23;20097;-78
2022/10/12 09:48:57;;;;;;;5.53;3.63;;;;;;;;;;6118678;23;20014;-79
2022/10/12 09:51:23;;;;;;;9.77;6.90;;;;;;;;;;6121158;23;20101;-79
2022/10/12 09:53:50;;;;;;;7.85;7.00;;;;;;;;;;6097394;23;20100;-79
2022/10/12 09:56:23;;;;;;;10.50;6.50;;;;;;;;;;6121035;23;20097;-79
2022/10/12 09:58:50;;;;;;;9.30;6.80;;;;;;;;;;6121396;23;20010;-79
2022/10/12 10:01:22;;;;;;;13.23;6.85;;;;;;;;;;6121088;23;20010;-79
2022/10/12 10:04:08;;;;;;;6.05;5.50;;;;;;;;;;6123493;23;20017;-79
2022/10/12 10:06:38;;;;;;;12.77;5.38;;;;;;;;;;6134423;23;20405;-78
2022/10/12 10:09:04;;;;;;;7.53;4.53;;;;;;;;;;6121475;23;20470;-79
2022/10/12 10:11:31;;;;;;;7.45;4.05;;;;;;;;;;6122427;23;20025;-79
2022/10/12 10:13:58;;;;;;;8.27;3.88;;;;;;;;;;6122577;23;20088;-78
2022/10/12 10:16:25;;;;;;;5.57;3.75;;;;;;;;;;6122290;23;20427;-79
2022/10/12 10:18:55;;;;;;;4.70;3.40;;;;;;;;;;6097005;23;20009;-78
2022/10/12 10:21:26;;;;;;;4.43;3.50;;;;;;;;;;6120748;23;20038;-80
2022/10/12 10:23:52;;;;;;;;;;;;;;;;;;6123614;23;20018;-79
2022/10/12 10:26:19;;;;;;;7.55;4.15;;;;;;;;;;6122363;23;19955;-79
2022/10/12 10:28:46;;;;;;;11.95;4.65;;;;;;;;;;6096724;23;20021;-78
2022/10/12 10:31:15;;;;;;;11.80;4.93;;;;;;;;;;6120539;23;20061;-78
2022/10/12 10:33:41;;;;;;;13.35;5.40;;;;;;;;;;6072941;23;20021;-78
2022/10/12 10:36:10;;;;;;;7.95;5.25;;;;;;;;;;6120854;23;20550;-78
2022/10/12 10:38:53;;;;;;;10.00;5.70;;;;;;;;;;6096653;23;20017;-78
2022/10/12 10:41:20;;;;;;;6.72;4.70;;;;;;;;;;6120958;23;20093;-77
2022/10/12 10:43:46;;;;;;;8.35;4.60;;;;;;;;;;6122117;23;20021;-78
2022/10/12 10:46:14;;;;;;;12.35;8.48;;;;;;;;;;6131067;23;20097;-78
2022/10/12 10:48:57;;;;;;;10.43;7.18;;;;;;;;;;6135348;23;20014;-77
2022/10/12 10:51:42;;;;;;;3.58;2.95;;;;;;;;;;6134863;23;20072;-79
2022/10/12 10:54:21;;;;;;;7.65;4.35;;;;;;;;;;6123701;23;20069;-78
2022/10/12 10:56:51;;;;;;;11.20;4.68;;;;;;;;;;6122817;23;20018;-78
2022/10/12 10:59:37;;;;;;;7.20;3.75;;;;;;;;;;6122530;23;20010;-78
2022/10/12 11:02:30;;;;;;;3.88;3.40;;;;;;;;;;6122751;23;20377;-78
2022/10/12 11:04:58;;;;;;;7.22;4.15;;;;;;;;;;6099174;23;20020;-78
2022/10/12 11:07:29;;;;;;;4.22;3.60;;;;;;;;;;6120873;23;20077;-78
2022/10/12 11:09:56;;;;;;;6.50;4.15;;;;;;;;;;6120768;23;20026;-79
2022/10/12 11:12:28;;;;;;;4.47;4.05;;;;;;;;;;6096441;23;20018;-78
2022/10/12 11:14:55;;;;;;;4.53;3.60;;;;;;;;;;6098170;23;20014;-78
2022/10/12 11:17:25;;;;;;;4.20;3.80;;;;;;;;;;6121888;23;20053;-77
2022/10/12 11:20:12;;;;;;;11.77;4.53;;;;;;;;;;6124427;23;20608;-77
2022/10/12 11:22:42;;;;;;;6.07;3.60;;;;;;;;;;6108865;23;20014;-78
2022/10/12 11:25:12;;;;;;;6.97;3.95;;;;;;;;;;6121573;23;20020;-78
2022/10/12 11:27:39;;;;;;;3.95;3.25;;;;;;;;;;6123636;23;20038;-78
2022/10/12 11:30:15;;;;;;;5.25;3.58;;;;;;;;;;6097847;23;20362;-78
2022/10/12 11:32:41;;;;;;;6.82;3.42;;;;;;;;;;6098600;23;20037;-78
2022/10/12 11:35:12;;;;;;;5.78;3.70;;;;;;;;;;6125369;23;20020;-78
2022/10/12 11:37:41;;;;;;;10.93;4.40;;;;;;;;;;6124033;23;20010;-79
2022/10/12 11:40:08;;;;;;;5.25;3.85;;;;;;;;;;6097704;23;20014;-78
2022/10/12 11:42:38;;;;;;;10.10;3.60;;;;;;;;;;6049538;23;20363;-78
2022/10/12 11:45:04;;;;;;;4.18;3.67;;;;;;;;;;6123170;23;20113;-79
2022/10/12 11:47:31;;;;;;;6.15;3.90;;;;;;;;;;6097684;23;20065;-79
2022/10/12 11:50:00;;;;;;;4.78;3.58;;;;;;;;;;6093984;23;20466;-78
2022/10/12 11:52:26;;;;;;;4.50;3.30;;;;;;;;;;6122882;23;20038;-78
2022/10/12 11:55:11;;;;;;;10.65;4.68;;;;;;;;;;6098074;23;20115;-78
2022/10/12 11:57:37;;;;;;;4.65;4.10;;;;;;;;;;6123040;23;20018;-77
2022/10/12 12:00:03;;;;;;;7.40;4.50;;;;;;;;;;6097420;23;20336;-79
2022/10/12 12:02:39;;;;;;;4.50;3.65;;;;;;;;;;6127309;23;20010;-79
2022/10/12 12:05:06;;;;;;;6.15;4.70;;;;;;;;;;6107715;23;20092;-81
2022/10/12 12:07:38;;;;;;;11.80;4.28;;;;;;;;;;6097711;23;20203;-79
2022/10/12 12:10:22;;;;;;;8.48;4.20;;;;;;;;;;6099238;23;20037;-76
2022/10/12 12:13:10;;;;;;;3.72;3.42;;;;;;;;;;6121491;23;20489;-76
2022/10/12 12:15:37;;;;;;;5.75;4.60;;;;;;;;;;6047195;23;20014;-76
2022/10/12 12:18:09;;;;;;;4.82;4.40;;;;;;;;;;6096280;23;20092;-76
2022/10/12 12:20:41;;;;;;;7.35;4.90;;;;;;;;;;6096915;23;20009;-76
2022/10/12 12:23:27;;;;;;;6.30;4.60;;;;;;;;;;6096946;23;20014;-76
2022/10/12 12:26:03;;;;;;;13.07;4.68;;;;;;;;;;6123001;23;20481;-79
2022/10/12 12:28:29;;;;;;;5.22;4.72;;;;;;;;;;6106698;23;20025;-78
2022/10/12 12:30:59;;;;;;;4.97;4.47;;;;;;;;;;6123200;23;20029;-78
2022/10/12 12:33:30;;;;;;;5.73;5.07;;;;;;;;;;6098207;23;20009;-78
2022/10/12 12:35:57;;;;;;;7.25;5.35;;;;;;;;;;6122219;23;20246;-79
2022/10/12 12:38:28;;;;;;;10.25;5.60;;;;;;;;;;6121734;23;20016;-78
2022/10/12 12:40:59;;;;;;;9.77;4.75;;;;;;;;;;6122242;23;20020;-78
2022/10/12 12:43:27;;;;;;;5.13;4.63;;;;;;;;;;6123286;23;20017;-79
2022/10/12 12:45:54;;;;;;;10.70;5.28;;;;;;;;;;6121700;23;20018;-79
2022/10/12 12:48:38;;;;;;;5.88;5.22;;;;;;;;;;6123362;23;20014;-79
2022/10/12 12:51:10;;;;;;;7.03;4.88;;;;;;;;;;6122978;23;20061;-79
2022/10/12 12:53:37;;;;;;;5.82;5.20;;;;;;;;;;6123495;23;20010;-78
2022/10/12 12:56:03;;;;;;;7.15;5.43;;;;;;;;;;6121353;23;20029;-79
2022/10/12 12:58:32;;;;;;;9.32;5.88;;;;;;;;;;6123299;23;20024;-79
2022/10/12 13:01:01;;;;;;;8.55;5.57;;;;;;;;;;6122743;23;20017;-77
2022/10/12 13:03:27;;;;;;;7.15;4.85;;;;;;;;;;6121788;23;20020;-78
2022/10/12 13:06:12;;;;;;;7.35;5.35;;;;;;;;;;6121673;23;20014;-78
2022/10/12 13:08:38;;;;;;;5.47;3.22;;;;;;;;;;6123184;23;20024;-79
2022/10/12 13:11:24;;;;;;;7.32;5.07;;;;;;;;;;6122641;23;20505;-78
2022/10/12 13:14:10;;;;;;;5.85;4.85;;;;;;;;;;6121879;23;20010;-76
2022/10/12 13:16:43;;;;;;;5.65;5.15;;;;;;;;;;6106465;23;20018;-77
2022/10/12 13:19:10;;;;;;;16.25;5.80;;;;;;;;;;6122914;23;20010;-78
2022/10/12 13:21:37;;;;;;;10.00;5.55;;;;;;;;;;6122699;23;20018;-78
2022/10/12 13:24:09;;;;;;;9.27;5.80;;;;;;;;;;6121454;23;20009;-79
2022/10/12 13:26:35;;;;;;;8.65;4.47;;;;;;;;;;6121349;23;20366;-77
2022/10/12 13:29:01;;;;;;;7.63;6.00;;;;;;;;;;6121420;23;20516;-78
2022/10/12 13:31:27;;;;;;;6.07;4.07;;;;;;;;;;6120919;23;20024;-79
2022/10/12 13:33:59;;;;;;;7.38;4.40;;;;;;;;;;6123144;23;20045;-77
2022/10/12 13:36:25;;;;;;;7.88;4.38;;;;;;;;;;6122161;23;20509;-76
2022/10/12 13:38:57;;;;;;;4.82;3.53;;;;;;;;;;6121393;23;20044;-77
2022/10/12 13:41:24;;;;;;;6.75;4.80;;;;;;;;;;6122444;23;20492;-76
2022/10/12 13:43:51;;;;;;;7.10;5.03;;;;;;;;;;6121511;23;20013;-76
2022/10/12 13:46:36;;;;;;;6.75;5.63;;;;;;;;;;6120819;23;20010;-75
2022/10/12 13:49:08;;;;;;;12.68;5.30;;;;;;;;;;6122759;23;20009;-76
2022/10/12 13:51:34;;;;;;;;;;;;;;;;;;6121430;23;20459;-76
2022/10/12 13:54:00;;;;;;;6.20;3.92;;;;;;;;;;6122765;23;19908;-76
2022/10/12 13:56:27;;;;;;;6.47;4.78;;;;;;;;;;6120651;23;20014;-75
2022/10/12 13:59:00;;;;;;;8.10;3.85;;;;;;;;;;6122858;23;20077;-76
2022/10/12 14:01:26;;;;;;;7.22;3.03;;;;;;;;;;6123394;23;20477;-76
2022/10/12 14:03:54;;;;;;;6.93;4.57;;;;;;;;;;6122518;23;20021;-76
2022/10/12 14:06:31;;;;;;;9.65;4.43;;;;;;;;;;6096232;23;20014;-76
2022/10/12 14:08:58;;;;;;;5.10;4.05;;;;;;;;;;6120886;23;20097;-76
2022/10/12 14:11:24;;;;;;;9.70;4.50;;;;;;;;;;6095872;23;20022;-77
2022/10/12 14:13:51;;;;;;;7.22;4.95;;;;;;;;;;6120911;23;20021;-76
2022/10/12 14:16:18;;;;;;;5.60;4.93;;;;;;;;;;6122247;23;20092;-75
2022/10/12 14:18:44;;;;;;;13.90;5.85;;;;;;;;;;6122494;23;20021;-76
2022/10/12 14:21:13;;;;;;;7.88;4.60;;;;;;;;;;6122155;23;20038;-76
2022/10/12 14:23:45;;;;;;;4.80;4.40;;;;;;;;;;6120995;23;20100;-76
2022/10/12 14:26:11;;;;;;;;;;;;;;;;;;6123090;23;20017;-76
2022/10/12 14:28:37;;;;;;;9.15;5.05;;;;;;;;;;6122380;23;19963;-79
2022/10/12 14:31:04;;;;;;;8.73;4.55;;;;;;;;;;6121592;23;20057;-79
2022/10/12 14:33:29;;;;;;;10.88;4.55;;;;;;;;;;6121203;23;20563;-79
2022/10/12 14:36:15;;;;;;;6.22;4.60;;;;;;;;;;6095928;23;20014;-78
2022/10/12 14:38:41;;;;;;;8.25;5.25;;;;;;;;;;6122145;23;20057;-80
2022/10/12 14:41:28;;;;;;;7.38;5.18;;;;;;;;;;6095936;23;20073;-79
2022/10/12 14:44:04;;;;;;;7.15;5.68;;;;;;;;;;6133455;23;20014;-79
2022/10/12 14:46:30;;;;;;;12.57;6.85;;;;;;;;;;6110187;23;20045;-79
2022/10/12 14:48:56;;;;;;;5.05;4.65;;;;;;;;;;6117581;23;20016;-78
2022/10/12 14:51:24;;;;;;;11.77;6.70;;;;;;;;;;6113637;23;20418;-78
2022/10/12 14:53:57;;;;;;;12.50;5.82;;;;;;;;;;6082480;23;20069;-79
2022/10/12 14:56:24;;;;;;;6.75;5.90;;;;;;;;;;6123191;23;20022;-78
2022/10/12 14:58:51;;;;;;;9.98;5.95;;;;;;;;;;6123301;23;20036;-78
2022/10/12 15:01:17;;;;;;;6.22;5.68;;;;;;;;;;6122306;23;20097;-78
2022/10/12 15:03:43;;;;;;;6.47;5.70;;;;;;;;;;6123431;23;20014;-78